Weather at Inverness Airport

Public forecast

Using degrees Celsius for public forecast. Weather courtesy of forecast.io.

Current aviation weather report (METAR) for Inverness Airport

2024/06/14 11:20 (retrieved 23 minutes ago)

EGPE 141120Z VRB02KT 9999 FEW020 SCT036 BKN045 15/12 Q0993

Closest aviation forecast (TAF) to Inverness Airport

Closest forecast is RAF Lossiemouth, 24.8 nm (45.9 km) ENE.

2024/06/14 09:42 (retrieved 2 hours ago)

TAF EGQS 140728Z 1409/1503 14006KT 9999 FEW012 BKN048 TEMPO 1409/1422 7000 SHRA PROB40 TEMPO 1411/1421 4000 +SHRA SCT020CB